createdAt,value
2018-12-13T00:00:18.324Z,103444.50
2018-12-13T00:01:23.024Z,103437.80
2018-12-13T00:02:27.595Z,103450.34
2018-12-13T00:03:31.912Z,103442.67
2018-12-13T00:04:36.524Z,103443.76
2018-12-13T00:05:41.025Z,103437.66
2018-12-13T00:06:45.501Z,103442.78
2018-12-13T00:07:49.797Z,103439.36
2018-12-13T00:08:54.254Z,103442.11
2018-12-13T00:09:58.745Z,103443.45
2018-12-13T00:11:03.854Z,103439.66
2018-12-13T00:12:08.090Z,103440.03
2018-12-13T00:13:12.674Z,103440.51
2018-12-13T00:14:16.695Z,103439.66
2018-12-13T00:15:24.887Z,103440.14
2018-12-13T00:16:28.896Z,103441.20
2018-12-13T00:17:32.987Z,103441.97
2018-12-13T00:18:37.185Z,103451.34
2018-12-13T00:19:41.134Z,103444.84
2018-12-13T00:20:45.044Z,103445.98
2018-12-13T00:21:48.892Z,103443.31
2018-12-13T00:22:52.826Z,103442.91
2018-12-13T00:23:56.770Z,103442.77
2018-12-13T00:25:00.697Z,103453.55
2018-12-13T00:26:04.589Z,103443.05
2018-12-13T00:27:08.523Z,103439.59
2018-12-13T00:28:12.517Z,103443.05
2018-12-13T00:29:16.416Z,103443.09
2018-12-13T00:30:20.391Z,103438.84
2018-12-13T00:31:24.443Z,103445.18
2018-12-13T00:32:28.390Z,103448.57
2018-12-13T00:33:32.381Z,103437.85
2018-12-13T00:34:36.289Z,103441.95
2018-12-13T00:35:40.304Z,103445.03
2018-12-13T00:36:44.288Z,103441.95
2018-12-13T00:37:48.239Z,103439.87
2018-12-13T00:38:52.645Z,103435.33
2018-12-13T00:39:56.552Z,103444.60
2018-12-13T00:41:00.510Z,103439.55
2018-12-13T00:42:04.490Z,103447.66
2018-12-13T00:43:08.634Z,103441.81
2018-12-13T00:44:12.692Z,103449.52
2018-12-13T00:45:17.343Z,103448.73
2018-12-13T00:46:21.269Z,103446.91
2018-12-13T00:47:25.222Z,103457.14
2018-12-13T00:48:29.151Z,103447.59
2018-12-13T00:49:33.089Z,103445.13
2018-12-13T00:50:37.016Z,103444.39
2018-12-13T00:51:41.036Z,103445.39
2018-12-13T00:52:44.952Z,103446.84
2018-12-13T00:53:48.942Z,103444.53
2018-12-13T00:54:52.947Z,103442.50
2018-12-13T00:55:56.815Z,103442.27
2018-12-13T00:57:00.734Z,103447.44
2018-12-13T00:58:05.057Z,103443.79
2018-12-13T00:59:09.071Z,103444.53
2018-12-13T01:00:13.110Z,103441.26
2018-12-13T01:01:17.450Z,103442.41
2018-12-13T01:02:21.430Z,103444.75
2018-12-13T01:03:25.366Z,103441.44
2018-12-13T01:04:29.304Z,103438.02
2018-12-13T01:05:33.315Z,103436.45
2018-12-13T01:06:37.656Z,103438.75
2018-12-13T01:07:41.652Z,103439.27
2018-12-13T01:08:46.026Z,103437.85
2018-12-13T01:09:50.141Z,103438.48
2018-12-13T01:10:54.481Z,103441.64
2018-12-13T01:11:58.468Z,103435.84
2018-12-13T01:13:02.628Z,103438.02
2018-12-13T01:14:06.641Z,103441.26
2018-12-13T01:15:10.856Z,103436.75
2018-12-13T01:16:20.329Z,103442.41
2018-12-13T01:17:24.979Z,103446.05
2018-12-13T01:18:29.328Z,103444.02
2018-12-13T01:19:33.936Z,103441.48
2018-12-13T01:20:38.432Z,103444.76
2018-12-13T01:21:49.395Z,103450.23
2018-12-13T01:22:53.636Z,103446.47
2018-12-13T01:23:57.565Z,103445.13
2018-12-13T01:25:02.277Z,103448.55
2018-12-13T01:26:06.688Z,103445.50
2018-12-13T01:27:10.911Z,103442.71
2018-12-13T01:28:15.184Z,103441.71
2018-12-13T01:29:19.489Z,103450.49
2018-12-13T01:30:23.537Z,103450.49
2018-12-13T01:31:27.498Z,103450.97
2018-12-13T01:32:31.441Z,103450.49
2018-12-13T01:33:35.367Z,103448.19
2018-12-13T01:34:39.267Z,103447.33
2018-12-13T01:35:43.203Z,103437.14
2018-12-13T01:36:52.388Z,103448.78
2018-12-13T01:37:51.188Z,103446.36
2018-12-13T01:38:55.134Z,103448.78
2018-12-13T01:39:59.157Z,103449.16
2018-12-13T01:41:03.068Z,103451.23
2018-12-13T01:42:06.937Z,103451.23
2018-12-13T01:43:10.983Z,103449.38
2018-12-13T01:44:14.862Z,103449.16
2018-12-13T01:45:18.952Z,103458.30
2018-12-13T01:46:22.921Z,103448.92
2018-12-13T01:47:26.844Z,103452.58
2018-12-13T01:48:30.942Z,103451.23
2018-12-13T01:49:34.883Z,103450.31
2018-12-13T01:50:38.855Z,103455.48
2018-12-13T01:51:42.727Z,103452.80
2018-12-13T01:52:46.643Z,103446.84
2018-12-13T01:53:50.654Z,103449.04
2018-12-13T01:54:54.554Z,103451.66
2018-12-13T01:55:58.461Z,103449.45
2018-12-13T01:57:02.367Z,103452.84
2018-12-13T01:58:06.301Z,103447.86
2018-12-13T01:59:10.341Z,103443.47
2018-12-13T02:00:14.593Z,103450.31
2018-12-13T02:01:18.945Z,103446.70
2018-12-13T02:02:23.101Z,103450.13
2018-12-13T02:03:27.283Z,103449.16
2018-12-13T02:04:31.677Z,103455.62
2018-12-13T02:05:35.903Z,103446.84
2018-12-13T02:06:40.139Z,103457.34
2018-12-13T02:07:44.485Z,103451.50
2018-12-13T02:08:48.739Z,103453.23
2018-12-13T02:09:53.173Z,103453.23
2018-12-13T02:10:57.457Z,103451.78
2018-12-13T02:12:01.713Z,103452.38
2018-12-13T02:13:05.880Z,103452.75
2018-12-13T02:14:10.119Z,103449.70
2018-12-13T02:15:14.542Z,103452.16
2018-12-13T02:16:18.705Z,103453.76
2018-12-13T02:17:23.035Z,103455.58
2018-12-13T02:18:27.327Z,103451.81
2018-12-13T02:19:31.659Z,103460.45
2018-12-13T02:20:35.862Z,103459.97
2018-12-13T02:21:40.151Z,103460.09
2018-12-13T02:22:44.378Z,103456.48
2018-12-13T02:23:48.662Z,103452.98
2018-12-13T02:24:53.073Z,103450.58
2018-12-13T02:25:57.303Z,103454.70
2018-12-13T02:27:01.694Z,103457.95
2018-12-13T02:28:06.103Z,103453.36
2018-12-13T02:29:10.410Z,103453.92
2018-12-13T02:30:14.606Z,103451.36
2018-12-13T02:31:18.897Z,103457.61
2018-12-13T02:32:23.100Z,103455.15
2018-12-13T02:33:27.379Z,103454.10
2018-12-13T02:34:31.774Z,103455.62
2018-12-13T02:35:36.156Z,103452.16
2018-12-13T02:36:40.675Z,103451.56
2018-12-13T02:37:44.970Z,103446.80
2018-12-13T02:38:49.283Z,103446.98
2018-12-13T02:39:53.559Z,103456.44
2018-12-13T02:40:57.840Z,103452.61
2018-12-13T02:42:02.112Z,103454.61
2018-12-13T02:43:06.292Z,103453.23
2018-12-13T02:44:10.582Z,103449.13
2018-12-13T02:45:14.823Z,103450.73
2018-12-13T02:46:19.165Z,103453.36
2018-12-13T02:47:23.587Z,103450.13
2018-12-13T02:48:27.728Z,103448.25
2018-12-13T02:49:32.182Z,103454.74
2018-12-13T02:50:36.437Z,103458.59
2018-12-13T02:51:40.740Z,103460.90
2018-12-13T02:52:45.099Z,103456.41
2018-12-13T02:53:49.407Z,103449.02
2018-12-13T02:54:53.591Z,103456.45
2018-12-13T02:55:57.878Z,103458.36
2018-12-13T02:57:01.755Z,103451.83
2018-12-13T02:58:06.199Z,103445.81
2018-12-13T02:59:10.406Z,103445.48
2018-12-13T03:00:14.742Z,103448.47
2018-12-13T03:01:18.918Z,103449.48
2018-12-13T03:02:23.256Z,103444.31
2018-12-13T03:03:27.572Z,103439.33
2018-12-13T03:04:31.895Z,103445.43
2018-12-13T03:05:36.189Z,103436.62
2018-12-13T03:06:40.473Z,103436.77
2018-12-13T03:07:44.474Z,103439.23
2018-12-13T03:08:48.372Z,103437.52
2018-12-13T03:09:52.704Z,103432.83
2018-12-13T03:10:56.985Z,103435.63
2018-12-13T03:12:00.927Z,103431.38
2018-12-13T03:13:05.099Z,103432.12
2018-12-13T03:14:09.149Z,103433.47
2018-12-13T03:15:13.111Z,103432.94
2018-12-13T03:16:17.032Z,103431.56
2018-12-13T03:17:20.986Z,103440.86
2018-12-13T03:18:24.915Z,103438.98
2018-12-13T03:19:28.855Z,103437.45
2018-12-13T03:20:32.772Z,103443.32
2018-12-13T03:21:36.756Z,103442.69
2018-12-13T03:22:40.719Z,103443.29
2018-12-13T03:23:44.709Z,103438.91
2018-12-13T03:24:48.642Z,103440.42
2018-12-13T03:25:52.590Z,103439.14
2018-12-13T03:26:56.501Z,103436.91
2018-12-13T03:28:00.450Z,103439.03
2018-12-13T03:29:04.436Z,103441.01
2018-12-13T03:30:08.515Z,103437.19
2018-12-13T03:31:12.440Z,103438.05
2018-12-13T03:32:16.427Z,103440.98
2018-12-13T03:33:20.301Z,103441.94
2018-12-13T03:34:24.234Z,103441.91
2018-12-13T03:35:28.196Z,103448.01
2018-12-13T03:36:32.113Z,103442.55
2018-12-13T03:37:36.052Z,103437.45
2018-12-13T03:38:42.756Z,103440.11
2018-12-13T03:39:46.689Z,103439.36
2018-12-13T03:40:50.611Z,103441.82
2018-12-13T03:41:54.509Z,103442.38
2018-12-13T03:42:58.426Z,103441.42
2018-12-13T03:44:02.402Z,103445.59
2018-12-13T03:45:06.388Z,103437.18
2018-12-13T03:46:10.360Z,103433.27
2018-12-13T03:47:14.295Z,103435.84
2018-12-13T03:48:18.264Z,103435.80
2018-12-13T03:49:22.209Z,103439.25
2018-12-13T03:50:26.109Z,103448.41
2018-12-13T03:51:30.018Z,103448.33
2018-12-13T03:52:33.904Z,103443.37
2018-12-13T03:53:38.063Z,103445.58
2018-12-13T03:54:42.006Z,103448.62
2018-12-13T03:55:45.929Z,103453.13
2018-12-13T03:56:49.878Z,103452.00
2018-12-13T03:57:53.812Z,103455.42
2018-12-13T03:58:57.730Z,103452.16
2018-12-13T04:00:07.881Z,103449.85
2018-12-13T04:01:11.812Z,103451.78
2018-12-13T04:02:15.875Z,103457.13
2018-12-13T04:03:19.796Z,103455.80
2018-12-13T04:04:23.737Z,103454.83
2018-12-13T04:05:27.645Z,103453.73
2018-12-13T04:06:31.553Z,103454.75
2018-12-13T04:07:36.450Z,103455.23
2018-12-13T04:08:40.393Z,103460.16
2018-12-13T04:09:44.302Z,103461.45
2018-12-13T04:10:48.235Z,103455.74
2018-12-13T04:11:52.168Z,103456.55
2018-12-13T04:12:56.202Z,103463.62
2018-12-13T04:14:00.162Z,103461.63
2018-12-13T04:15:04.223Z,103463.64
2018-12-13T04:16:08.163Z,103461.45
2018-12-13T04:17:12.104Z,103457.74
2018-12-13T04:18:16.046Z,103458.98
2018-12-13T04:19:19.979Z,103456.78
2018-12-13T04:20:23.913Z,103454.87
2018-12-13T04:21:27.775Z,103456.41
2018-12-13T04:22:31.737Z,103457.37
2018-12-13T04:23:35.678Z,103456.03
2018-12-13T04:24:39.683Z,103461.92
2018-12-13T04:25:43.642Z,103460.21
2018-12-13T04:26:47.519Z,103451.98
2018-12-13T04:27:51.527Z,103454.76
2018-12-13T04:28:55.438Z,103453.36
2018-12-13T04:29:59.350Z,103449.35
2018-12-13T04:31:03.279Z,103451.61
2018-12-13T04:32:07.181Z,103454.11
2018-12-13T04:33:11.176Z,103452.39
2018-12-13T04:34:15.044Z,103450.63
2018-12-13T04:35:18.947Z,103448.38
2018-12-13T04:36:22.864Z,103455.23
2018-12-13T04:37:26.798Z,103452.18
2018-12-13T04:38:30.847Z,103447.58
2018-12-13T04:39:34.796Z,103447.48
2018-12-13T04:40:38.736Z,103455.80
2018-12-13T04:41:42.708Z,103452.06
2018-12-13T04:42:46.602Z,103451.00
2018-12-13T04:43:50.569Z,103451.46
2018-12-13T04:44:54.499Z,103448.09
2018-12-13T04:45:58.420Z,103453.05
2018-12-13T04:47:02.329Z,103444.06
2018-12-13T04:48:06.289Z,103451.53
2018-12-13T04:49:10.241Z,103448.75
2018-12-13T04:50:14.139Z,103445.27
2018-12-13T04:51:18.075Z,103454.83
2018-12-13T04:52:22.032Z,103451.94
2018-12-13T04:53:25.972Z,103451.34
2018-12-13T04:54:29.933Z,103450.09
2018-12-13T04:55:33.811Z,103448.54
2018-12-13T04:56:37.737Z,103450.66
2018-12-13T04:57:41.681Z,103447.28
2018-12-13T04:58:45.609Z,103441.34
2018-12-13T04:59:49.820Z,103442.20
2018-12-13T05:00:53.740Z,103441.63
2018-12-13T05:01:57.679Z,103444.69
2018-12-13T05:03:01.582Z,103440.34
2018-12-13T05:04:05.545Z,103433.54
2018-12-13T05:05:09.467Z,103434.69
2018-12-13T05:06:13.388Z,103434.47
2018-12-13T05:07:17.355Z,103435.81
2018-12-13T05:08:21.230Z,103434.47
2018-12-13T05:09:25.102Z,103437.89
2018-12-13T05:10:39.972Z,103431.05
2018-12-13T05:11:43.961Z,103433.94
2018-12-13T05:12:48.009Z,103439.45
2018-12-13T05:13:51.887Z,103431.61
2018-12-13T05:14:55.761Z,103429.11
2018-12-13T05:15:59.692Z,103437.81
2018-12-13T05:17:03.652Z,103431.61
2018-12-13T05:18:07.613Z,103440.75
2018-12-13T05:19:11.606Z,103426.51
2018-12-13T05:20:15.549Z,103440.91
2018-12-13T05:21:19.505Z,103433.47
2018-12-13T05:22:23.418Z,103439.97
2018-12-13T05:23:27.404Z,103442.69
2018-12-13T05:24:31.311Z,103442.36
2018-12-13T05:25:35.266Z,103443.95
2018-12-13T05:26:39.250Z,103442.61
2018-12-13T05:27:43.211Z,103446.92
2018-12-13T05:28:47.539Z,103441.80
2018-12-13T05:29:51.777Z,103442.97
2018-12-13T05:30:55.963Z,103442.75
2018-12-13T05:32:00.237Z,103446.55
2018-12-13T05:33:04.618Z,103446.37
2018-12-13T05:34:08.776Z,103443.20
2018-12-13T05:35:13.142Z,103439.83
2018-12-13T05:36:17.496Z,103445.92
2018-12-13T05:37:21.776Z,103446.11
2018-12-13T05:38:26.167Z,103450.98
2018-12-13T05:39:30.452Z,103448.61
2018-12-13T05:40:34.730Z,103448.94
2018-12-13T05:41:39.056Z,103453.44
2018-12-13T05:42:43.393Z,103454.59
2018-12-13T05:43:51.648Z,103457.63
2018-12-13T05:44:56.176Z,103459.56
2018-12-13T05:46:00.499Z,103457.56
2018-12-13T05:47:04.700Z,103453.25
2018-12-13T05:48:09.080Z,103454.59
2018-12-13T05:49:13.538Z,103450.38
2018-12-13T05:50:17.639Z,103450.38
2018-12-13T05:51:22.046Z,103449.42
2018-12-13T05:52:26.574Z,103451.34
2018-12-13T05:53:30.786Z,103456.59
2018-12-13T05:54:35.059Z,103450.16
2018-12-13T05:55:39.347Z,103450.91
2018-12-13T05:56:43.673Z,103450.80
2018-12-13T05:57:47.832Z,103449.76
2018-12-13T05:58:52.364Z,103451.88
2018-12-13T05:59:56.717Z,103454.80
2018-12-13T06:01:00.901Z,103456.36
2018-12-13T06:02:05.146Z,103449.67
2018-12-13T06:03:09.493Z,103451.48
2018-12-13T06:04:13.912Z,103455.28
2018-12-13T06:05:18.156Z,103454.21
2018-12-13T06:06:22.573Z,103458.05
2018-12-13T06:07:26.834Z,103456.78
2018-12-13T06:08:31.120Z,103453.62
2018-12-13T06:09:35.528Z,103457.94
2018-12-13T06:10:39.743Z,103456.86
2018-12-13T06:11:44.127Z,103454.92
2018-12-13T06:12:48.392Z,103456.08
2018-12-13T06:13:52.554Z,103458.54
2018-12-13T06:14:56.863Z,103457.09
2018-12-13T06:16:01.157Z,103456.61
2018-12-13T06:17:05.551Z,103455.86
2018-12-13T06:18:09.901Z,103455.64
2018-12-13T06:19:14.133Z,103455.64
2018-12-13T06:20:18.562Z,103460.44
2018-12-13T06:21:22.771Z,103457.95
2018-12-13T06:22:27.067Z,103455.16
2018-12-13T06:23:31.404Z,103454.78
2018-12-13T06:24:35.698Z,103455.94
2018-12-13T06:25:39.915Z,103459.47
2018-12-13T06:26:44.172Z,103458.50
2018-12-13T06:27:48.304Z,103458.13
2018-12-13T06:28:52.532Z,103452.81
2018-12-13T06:29:59.022Z,103453.96
2018-12-13T06:31:01.288Z,103455.36
2018-12-13T06:32:05.668Z,103460.78
2018-12-13T06:33:09.916Z,103458.61
2018-12-13T06:34:14.237Z,103457.19
2018-12-13T06:35:18.580Z,103458.34
2018-12-13T06:36:22.815Z,103464.55
2018-12-13T06:37:27.067Z,103460.80
2018-12-13T06:38:31.413Z,103456.98
2018-12-13T06:39:35.736Z,103458.69
2018-12-13T06:40:40.134Z,103459.06
2018-12-13T06:41:44.547Z,103462.33
2018-12-13T06:42:48.707Z,103462.23
2018-12-13T06:43:52.934Z,103460.59
2018-12-13T06:44:57.493Z,103466.34
2018-12-13T06:46:01.736Z,103468.14
2018-12-13T06:47:06.426Z,103467.89
2018-12-13T06:48:10.722Z,103467.89
2018-12-13T06:49:15.073Z,103467.41
2018-12-13T06:50:19.662Z,103460.23
2018-12-13T06:51:23.972Z,103464.66
2018-12-13T06:52:28.440Z,103463.59
2018-12-13T06:53:32.727Z,103461.77
2018-12-13T06:54:37.049Z,103464.13
2018-12-13T06:55:41.331Z,103463.83
2018-12-13T06:56:45.664Z,103466.13
2018-12-13T06:57:50.058Z,103465.43
2018-12-13T06:58:54.359Z,103469.53
2018-12-13T06:59:58.671Z,103464.17
2018-12-13T07:01:02.915Z,103468.97
2018-12-13T07:02:07.340Z,103460.19
2018-12-13T07:03:11.818Z,103470.36
2018-12-13T07:04:15.967Z,103466.16
2018-12-13T07:05:20.310Z,103457.91
2018-12-13T07:06:24.611Z,103462.03
2018-12-13T07:07:28.963Z,103459.25
2018-12-13T07:08:33.387Z,103460.59
2018-12-13T07:09:37.744Z,103460.03
2018-12-13T07:10:42.118Z,103459.44
2018-12-13T07:11:46.480Z,103463.72
2018-12-13T07:12:51.139Z,103456.36
2018-12-13T07:13:55.568Z,103465.25
2018-12-13T07:14:59.869Z,103465.62
2018-12-13T07:16:04.161Z,103462.47
2018-12-13T07:17:08.578Z,103469.80
2018-12-13T07:18:12.997Z,103470.39
2018-12-13T07:19:17.417Z,103476.48
2018-12-13T07:20:21.757Z,103475.34
2018-12-13T07:21:26.120Z,103476.94
2018-12-13T07:22:30.555Z,103481.55
2018-12-13T07:23:34.804Z,103476.83
2018-12-13T07:24:39.200Z,103476.35
2018-12-13T07:25:43.559Z,103476.72
2018-12-13T07:26:47.850Z,103471.84
2018-12-13T07:27:52.119Z,103471.37
2018-12-13T07:28:56.621Z,103470.89
2018-12-13T07:30:01.009Z,103476.05
2018-12-13T07:31:05.204Z,103475.24
2018-12-13T07:32:09.574Z,103469.33
2018-12-13T07:33:13.792Z,103475.35
2018-12-13T07:34:18.204Z,103474.39
2018-12-13T07:35:22.672Z,103469.63
2018-12-13T07:36:27.015Z,103473.05
2018-12-13T07:37:31.312Z,103473.45
2018-12-13T07:38:35.646Z,103480.89
2018-12-13T07:39:40.005Z,103471.41
2018-12-13T07:40:44.381Z,103472.56
2018-12-13T07:41:48.724Z,103471.15
2018-12-13T07:42:53.165Z,103470.19
2018-12-13T07:43:57.381Z,103470.55
2018-12-13T07:45:02.057Z,103468.55
2018-12-13T07:46:05.623Z,103470.33
2018-12-13T07:47:09.606Z,103477.87
2018-12-13T07:48:13.589Z,103480.66
2018-12-13T07:49:17.528Z,103478.62
2018-12-13T07:50:21.807Z,103482.16
2018-12-13T07:51:26.027Z,103479.38
2018-12-13T07:52:30.391Z,103479.66
2018-12-13T07:53:34.330Z,103480.71
2018-12-13T07:54:38.324Z,103479.19
2018-12-13T07:55:42.259Z,103475.91
2018-12-13T07:56:46.241Z,103477.92
2018-12-13T07:57:50.222Z,103477.47
2018-12-13T07:58:54.201Z,103483.77
2018-12-13T07:59:58.192Z,103485.20
2018-12-13T08:01:02.144Z,103485.28
2018-12-13T08:02:06.146Z,103486.25
2018-12-13T08:03:10.093Z,103483.20
2018-12-13T08:04:14.100Z,103485.66
2018-12-13T08:05:18.063Z,103483.73
2018-12-13T08:06:22.069Z,103480.86
2018-12-13T08:07:26.390Z,103484.92
2018-12-13T08:08:30.756Z,103486.07
2018-12-13T08:09:35.070Z,103488.79
2018-12-13T08:10:39.411Z,103488.79
2018-12-13T08:11:43.435Z,103494.78
2018-12-13T08:12:47.375Z,103491.51
2018-12-13T08:13:51.309Z,103489.45
2018-12-13T08:14:55.251Z,103486.59
2018-12-13T08:15:59.231Z,103490.05
2018-12-13T08:17:03.291Z,103488.41
2018-12-13T08:18:07.303Z,103486.30
2018-12-13T08:19:11.247Z,103480.56
2018-12-13T08:20:15.188Z,103477.59
2018-12-13T08:21:19.148Z,103483.09
2018-12-13T08:22:23.085Z,103475.62
2018-12-13T08:23:27.029Z,103484.77
2018-12-13T08:24:30.979Z,103480.23
2018-12-13T08:25:34.993Z,103480.01
2018-12-13T08:26:38.954Z,103478.67
2018-12-13T08:27:42.903Z,103475.02
2018-12-13T08:28:46.957Z,103470.03
2018-12-13T08:29:50.895Z,103470.22
2018-12-13T08:30:54.851Z,103468.28
2018-12-13T08:31:58.885Z,103472.94
2018-12-13T08:33:02.813Z,103473.59
2018-12-13T08:34:06.837Z,103477.02
2018-12-13T08:35:10.734Z,103483.13
2018-12-13T08:36:14.655Z,103481.22
2018-12-13T08:37:18.604Z,103478.73
2018-12-13T08:38:27.277Z,103480.36
2018-12-13T08:39:26.625Z,103481.85
2018-12-13T08:40:30.700Z,103481.25
2018-12-13T08:41:34.630Z,103474.84
2018-12-13T08:42:38.565Z,103479.06
2018-12-13T08:43:42.655Z,103475.78
2018-12-13T08:44:46.620Z,103474.24
2018-12-13T08:45:50.728Z,103471.88
2018-12-13T08:46:54.651Z,103475.33
2018-12-13T08:47:58.612Z,103468.82
2018-12-13T08:49:02.518Z,103472.80
2018-12-13T08:50:06.629Z,103472.08
2018-12-13T08:51:10.617Z,103474.76
2018-12-13T08:52:14.561Z,103471.89
2018-12-13T08:53:18.625Z,103475.42
2018-12-13T08:54:22.565Z,103478.25
2018-12-13T08:55:26.492Z,103470.13
2018-12-13T08:56:30.441Z,103474.88
2018-12-13T08:57:34.398Z,103473.80
2018-12-13T08:58:38.357Z,103459.65
2018-12-13T08:59:42.460Z,103469.83
2018-12-13T09:00:46.411Z,103468.13
2018-12-13T09:01:50.323Z,103472.03
2018-12-13T09:02:54.284Z,103476.25
2018-12-13T09:03:58.236Z,103471.38
2018-12-13T09:05:02.155Z,103475.69
2018-12-13T09:06:06.083Z,103475.99
2018-12-13T09:07:09.983Z,103478.25
2018-12-13T09:08:13.915Z,103475.22
2018-12-13T09:09:17.853Z,103476.73
2018-12-13T09:10:22.153Z,103476.13
2018-12-13T09:11:26.496Z,103480.05
2018-12-13T09:12:30.766Z,103477.73
2018-12-13T09:13:35.196Z,103474.11
2018-12-13T09:14:39.478Z,103479.48
2018-12-13T09:15:43.847Z,103476.93
2018-12-13T09:16:48.169Z,103477.78
2018-12-13T09:17:52.397Z,103470.83
2018-12-13T09:18:56.712Z,103483.20
2018-12-13T09:20:01.017Z,103476.27
2018-12-13T09:21:05.364Z,103482.00
2018-12-13T09:22:09.738Z,103478.95
2018-12-13T09:23:14.120Z,103475.64
2018-12-13T09:24:18.731Z,103480.66
2018-12-13T09:25:23.793Z,103478.20
2018-12-13T09:26:28.008Z,103479.01
2018-12-13T09:27:32.281Z,103477.90
2018-12-13T09:28:36.600Z,103475.70
2018-12-13T09:29:40.852Z,103469.73
2018-12-13T09:30:45.323Z,103467.54
2018-12-13T09:31:49.670Z,103470.45
2018-12-13T09:32:53.995Z,103468.26
2018-12-13T09:33:58.073Z,103470.83
2018-12-13T09:35:02.496Z,103469.48
2018-12-13T09:36:06.684Z,103474.36
2018-12-13T09:37:10.962Z,103478.56
2018-12-13T09:38:15.440Z,103473.45
2018-12-13T09:39:19.828Z,103479.67
2018-12-13T09:40:30.307Z,103478.94
2018-12-13T09:41:34.574Z,103479.78
2018-12-13T09:42:38.757Z,103477.96
2018-12-13T09:43:43.009Z,103475.16
2018-12-13T09:44:47.205Z,103473.34
2018-12-13T09:45:51.496Z,103479.36
2018-12-13T09:46:55.873Z,103478.02
2018-12-13T09:48:00.173Z,103474.97
2018-12-13T09:49:04.572Z,103473.14
2018-12-13T09:50:08.892Z,103473.87
2018-12-13T09:51:13.137Z,103475.82
2018-12-13T09:52:17.440Z,103467.05
2018-12-13T09:53:21.777Z,103471.20
2018-12-13T09:54:26.195Z,103469.05
2018-12-13T09:55:30.583Z,103472.84
2018-12-13T09:56:34.862Z,103473.45
2018-12-13T09:57:39.243Z,103469.67
2018-12-13T09:58:43.500Z,103467.84
2018-12-13T09:59:47.934Z,103457.06
2018-12-13T10:00:52.191Z,103464.54
2018-12-13T10:01:56.521Z,103463.40
2018-12-13T10:03:00.818Z,103461.20
2018-12-13T10:04:05.566Z,103459.38
2018-12-13T10:05:10.015Z,103459.91
2018-12-13T10:06:14.539Z,103451.75
2018-12-13T10:07:18.830Z,103459.80
2018-12-13T10:08:23.096Z,103458.83
2018-12-13T10:09:27.311Z,103464.19
2018-12-13T10:10:31.606Z,103460.33
2018-12-13T10:11:36.004Z,103453.76
2018-12-13T10:12:40.195Z,103460.23
2018-12-13T10:13:44.531Z,103467.23
2018-12-13T10:14:48.656Z,103456.38
2018-12-13T10:15:52.883Z,103453.39
2018-12-13T10:16:57.099Z,103456.98
2018-12-13T10:18:01.454Z,103453.31
2018-12-13T10:19:05.760Z,103456.44
2018-12-13T10:20:10.098Z,103452.78
2018-12-13T10:21:14.497Z,103455.15
2018-12-13T10:22:18.816Z,103444.06
2018-12-13T10:23:23.066Z,103444.22
2018-12-13T10:24:27.441Z,103448.86
2018-12-13T10:25:31.887Z,103445.81
2018-12-13T10:26:36.283Z,103440.40
2018-12-13T10:27:40.640Z,103443.85
2018-12-13T10:28:44.839Z,103440.89
2018-12-13T10:29:49.114Z,103438.48
2018-12-13T10:30:53.337Z,103428.56
2018-12-13T10:31:57.725Z,103437.52
2018-12-13T10:33:02.048Z,103436.01
2018-12-13T10:34:06.369Z,103436.98
2018-12-13T10:35:11.473Z,103431.41
2018-12-13T10:36:15.116Z,103433.25
2018-12-13T10:37:19.425Z,103433.41
2018-12-13T10:38:23.868Z,103436.45
2018-12-13T10:39:28.102Z,103427.88
2018-12-13T10:40:32.440Z,103433.32
2018-12-13T10:41:36.739Z,103430.80
2018-12-13T10:42:41.114Z,103427.51
2018-12-13T10:43:45.522Z,103426.91
2018-12-13T10:44:49.737Z,103424.70
2018-12-13T10:45:54.331Z,103423.48
2018-12-13T10:46:58.763Z,103419.09
2018-12-13T10:48:03.053Z,103423.64
2018-12-13T10:49:07.427Z,103423.64
2018-12-13T10:50:11.711Z,103426.09
2018-12-13T10:51:16.043Z,103427.06
2018-12-13T10:52:20.267Z,103422.95
2018-12-13T10:53:24.850Z,103413.41
2018-12-13T10:54:29.176Z,103414.98
2018-12-13T10:55:33.486Z,103419.51
2018-12-13T10:56:37.762Z,103415.39
2018-12-13T10:57:42.101Z,103414.99
2018-12-13T10:58:46.430Z,103413.65
2018-12-13T10:59:50.815Z,103417.95
2018-12-13T11:01:00.079Z,103409.53
2018-12-13T11:02:07.647Z,103411.98
2018-12-13T11:03:23.418Z,103410.27
2018-12-13T11:04:27.799Z,103416.41
2018-12-13T11:05:32.141Z,103416.66
2018-12-13T11:06:36.530Z,103409.13
2018-12-13T11:07:40.864Z,103399.98
2018-12-13T11:08:45.197Z,103413.56
2018-12-13T11:09:49.556Z,103407.34
2018-12-13T11:10:53.878Z,103410.67
2018-12-13T11:11:58.087Z,103402.61
2018-12-13T11:13:02.481Z,103410.30
2018-12-13T11:14:06.792Z,103411.03
2018-12-13T11:15:11.089Z,103411.12
2018-12-13T11:16:15.409Z,103410.88
2018-12-13T11:17:19.757Z,103413.08
2018-12-13T11:18:24.101Z,103413.36
2018-12-13T11:19:28.661Z,103417.47
2018-12-13T11:20:33.174Z,103416.53
2018-12-13T11:21:37.520Z,103417.62
2018-12-13T11:22:41.772Z,103416.66
2018-12-13T11:23:46.214Z,103419.58
2018-12-13T11:24:50.616Z,103418.60
2018-12-13T11:25:55.039Z,103410.27
2018-12-13T11:28:11.535Z,103414.14
2018-12-13T11:30:24.993Z,103413.31
2018-12-13T11:31:28.922Z,103402.78
2018-12-13T11:32:33.250Z,103414.62
2018-12-13T11:33:37.533Z,103409.50
2018-12-13T11:34:41.831Z,103412.06
2018-12-13T11:35:46.214Z,103406.57
2018-12-13T11:36:50.448Z,103407.91
2018-12-13T11:37:54.819Z,103414.14
2018-12-13T11:38:59.100Z,103408.03
2018-12-13T11:40:03.536Z,103418.64
2018-12-13T11:41:07.859Z,103418.48
2018-12-13T11:42:12.244Z,103404.16
2018-12-13T11:43:16.684Z,103411.85
2018-12-13T11:44:21.056Z,103414.53
2018-12-13T11:45:25.679Z,103405.51
2018-12-13T11:46:30.104Z,103411.97
2018-12-13T11:47:34.510Z,103410.45
2018-12-13T11:48:39.230Z,103408.88
2018-12-13T11:49:43.600Z,103407.66
2018-12-13T11:50:47.808Z,103408.02
2018-12-13T11:51:52.054Z,103409.16
2018-12-13T11:52:56.383Z,103409.77
2018-12-13T11:54:00.875Z,103411.28
2018-12-13T11:55:44.896Z,103406.28
2018-12-13T11:56:48.914Z,103414.94
2018-12-13T11:57:53.175Z,103406.61
2018-12-13T11:58:57.391Z,103412.63
2018-12-13T12:00:01.671Z,103400.14
2018-12-13T12:01:06.072Z,103405.30
2018-12-13T12:02:10.510Z,103404.70
2018-12-13T12:03:14.915Z,103405.80
2018-12-13T12:04:19.279Z,103407.91
2018-12-13T12:05:23.671Z,103404.98
2018-12-13T12:06:28.145Z,103409.37
2018-12-13T12:07:32.498Z,103405.43
2018-12-13T12:08:36.939Z,103407.30
2018-12-13T12:09:41.307Z,103407.54
2018-12-13T12:10:45.653Z,103406.77
2018-12-13T12:11:50.117Z,103409.53
2018-12-13T12:12:54.612Z,103408.92
2018-12-13T12:13:58.802Z,103407.58
2018-12-13T12:15:03.357Z,103406.56
2018-12-13T12:16:07.677Z,103409.35